ADDS METAR Data INFO
IDs: Format: Raw Decoded Include TAF

Data at: 0047 UTC 22 Oct 2017

KUAO 212353Z 19016G25KT 10SM -RA BKN010 OVC017 14/14 A2984 RMK AO2 PK WND 18026/2318 SLP103 P0006 60045 T01440144 10144 20117 50003
KUAO 212253Z 19013G20KT 6SM -RA BR BKN010 OVC017 14/14 A2984 RMK AO2 SLP104 P0008 T01390139
KUAO 212155Z 19016G25KT 7SM -RA BKN010 OVC017 13/13 A2983 RMK AO2 P0000 T01330133
KUAO 212153Z 20011G21KT 7SM -RA OVC008 13/13 A2984 RMK AO2 PK WND 18027/2125 SLP103 P0010 T01330133
KUAO 212053Z 19022G31KT 4SM RA BR OVC008 13/13 A2983 RMK AO2 PK WND 19031/2053 SLP100 P0010 60021 T01280128 58009
KUAO 211953Z 20012G21KT 6SM -RA BR OVC015 12/12 A2983 RMK AO2 SLP102 P0006 T01220117
KUAO 211853Z 19011KT 8SM -RA SCT015 OVC028 12/11 A2985 RMK AO2 PK WND 19026/1815 SLP108 P0005 T01170111
KUAO 211753Z 19013G24KT 10SM -RA SCT020 OVC032 12/11 A2985 RMK AO2 PK WND 19028/1657 SLP109 P0002 60007 T01170106 10117 20083 55001
KUAO 211653Z 19016G22KT 10SM -RA OVC025 11/09 A2985 RMK AO2 PK WND 18026/1637 SLP108 P0001 T01060094
KUAO 211553Z 19010G22KT 10SM -RA OVC026 10/09 A2985 RMK AO2 SLP109 P0002 T01000089
KUAO 211453Z 19008KT 10SM -RA BKN023 OVC029 09/08 A2986 RMK AO2 SLP111 P0001 60002 T00940078 56013
KUAO 211353Z 21005KT 10SM -RA OVC026 09/08 A2986 RMK AO2 RAB00 SLP113 P0001 T00890078
KUAO 211253Z AUTO 00000KT 10SM OVC028 08/08 A2988 RMK AO2 RAE08B27E53 SLP119 P0000 T00830078
KUAO 211153Z AUTO 14005KT 10SM -RA FEW039 OVC050 08/07 A2990 RMK AO2 SLP123 P0005 60022 70029 T00830072 10100 20083 58025
KUAO 211053Z AUTO 19010KT 10SM -RA SCT030 OVC042 08/07 A2994 RMK AO2 SLP138 P0010 T00830072
KUAO 210953Z AUTO 18014G19KT 9SM -RA FEW037 OVC048 09/08 A2996 RMK AO2 SLP146 P0005 T00940078
KUAO 210853Z AUTO 18010KT 10SM -RA OVC060 09/08 A2997 RMK AO2 SLP148 P0001 60002 T00940078 58012
KUAO 210753Z AUTO 18010KT 10SM -RA BKN040 OVC050 09/08 A2999 RMK AO2 RAB28 SLP154 P0001 T00940078 401330089
KUAO 210653Z AUTO 19006KT 10SM FEW110 10/07 A3000 RMK AO2 SLP159 T01000067
KUAO 210553Z AUTO 19009KT 10SM FEW040 BKN060 BKN075 10/07 A3000 RMK AO2 SLP160 60001 T01000067 10117 20089 58004
KUAO 210453Z AUTO 19011KT 10SM FEW100 09/07 A3000 RMK AO2 RAE0356 SLP160 P0000 T00940067
KUAO 210353Z AUTO 22003KT 10SM -RA SCT037 BKN044 OVC060 09/07 A3002 RMK AO2 RAB39 SLP165 P0001 T00890072
KUAO 210253Z 18009KT 10SM BKN050 OVC065 09/06 A3002 RMK AO2 SLP164 T00940061 51015
KUAO 210153Z 20007KT 10SM FEW080 10/06 A3001 RMK AO2 SLP161 T01000061
KUAO 210053Z 19007KT 10SM FEW048 11/08 A2999 RMK AO2 SLP156 T01060078
KUAO 202353Z 19009G18KT 10SM SCT025 SCT100 12/07 A2997 RMK AO2 SLP150 60000 T01170067 10133 20100 53016
KUAO 202253Z 18010KT 10SM SCT024 BKN030 BKN041 13/07 A2996 RMK AO2 SLP143 T01280072
KUAO 202153Z 19006KT 10SM BKN013 BKN030 BKN050 12/08 A2994 RMK AO2 RAB05E21 SLP138 P0000 T01220078
KUAO 202053Z 22007G17KT 10SM BKN013 BKN035 OVC047 11/07 A2993 RMK AO2 RAE14 SLP133 P0000 60000 T01060067 53025
KUAO 201953Z 19010G18KT 10SM -RA BKN013 BKN027 OVC055 10/08 A2991 RMK AO2 SLP126 P0000 T01000083
KUAO 201945Z 19014G19KT 10SM -RA BKN013 BKN027 OVC055 10/08 A2990 RMK AO2 P0000 T01000083
KUAO 201853Z 20009G19KT 170V230 10SM -RA SCT009 BKN048 OVC120 11/08 A2987 RMK AO2 RAE04B52 SLP114 P0000 T01060083
KUAO 201753Z 19014G20KT 10SM -RA SCT009 BKN038 OVC050 10/09 A2985 RMK AO2 RAE21B50 SLP108 P0001 60006 T01000089 10100 20089 53024
KUAO 201653Z 20009KT 10SM -RA SCT009 BKN043 OVC085 10/09 A2983 RMK AO2 RAB45 SLP100 P0000 T01000089
KUAO 201553Z 19011KT 10SM SCT009 BKN037 OVC060 09/09 A2980 RMK AO2 RAB34E44 SLP090 P0000 T00940089
KUAO 201516Z 19013KT 10SM SCT009 BKN048 OVC055 09/08 A2978 RMK AO2 T00940083
KUAO 201453Z 18011KT 10SM BKN040 OVC055 09/08 A2978 RMK AO2 RAB05E43 SLP084 P0001 60005 T00940083 51020
KUAO 201353Z AUTO 20009KT 10SM BKN050 BKN070 OVC095 09/08 A2976 RMK AO2 SLP079 T00890083
KUAO 201253Z AUTO 18007KT 10SM SCT043 OVC060 09/08 A2974 RMK AO2 RAB1155E41 SLP072 P0004 T00890083 $